Time;durP1;ratioP1;P1;durP2;ratioP2;P2;SDS_P1;SDS_P2;PMS_P1;PMS_P2;Temp;Humidity;BMP_temperature;BMP_pressure;BME280_temperature;BME280_humidity;BME280_pressure;Samples;Min_cycle;Max_cycle;Signal;HPM_P1;HPM_P2
2022/09/05 00:01:15;;;;;;;1.02;0.93;;;;;;;20.13;48.80;102250.63;6243730;28;20232;-72
2022/09/05 00:04:44;;;;;;;1.85;1.10;;;;;;;19.98;49.08;102249.56;6228730;28;20256;-73
2022/09/05 00:08:15;;;;;;;1.05;0.88;;;;;;;19.89;49.57;102243.19;6221023;28;20228;-73
2022/09/05 00:11:41;;;;;;;2.90;1.13;;;;;;;19.92;49.61;102250.22;6232232;28;20240;-73
2022/09/05 00:15:17;;;;;;;1.98;1.50;;;;;;;19.82;49.61;102249.47;6232277;28;20232;-72
2022/09/05 00:18:52;;;;;;;2.75;0.98;;;;;;;19.77;50.04;102246.38;6263973;28;20236;-72
2022/09/05 00:22:39;;;;;;;1.80;1.58;;;;;;;19.79;49.58;102242.47;6211714;28;20245;-71
2022/09/05 00:26:12;;;;;;;2.63;1.30;;;;;;;19.75;50.04;102245.69;6213189;28;20241;-72
2022/09/05 00:29:47;;;;;;;1.50;1.33;;;;;;;19.66;50.03;102242.03;6233203;28;20224;-72
2022/09/05 00:33:25;;;;;;;2.20;1.80;;;;;;;19.61;50.38;102244.38;6233782;28;20262;-72
2022/09/05 00:36:49;;;;;;;1.67;1.20;;;;;;;19.61;50.43;102249.03;6229602;28;20315;-74
2022/09/05 00:40:19;;;;;;;1.70;1.60;;;;;;;19.59;50.58;102251.03;6231667;28;20228;-72
2022/09/05 00:43:44;;;;;;;6.53;2.00;;;;;;;19.42;50.97;102262.91;6230783;28;20586;-73
2022/09/05 00:47:12;;;;;;;0.85;0.85;;;;;;;19.34;51.12;102260.09;6221944;28;20222;-73
2022/09/05 00:50:41;;;;;;;0.95;0.95;;;;;;;19.33;51.28;102267.41;6227233;28;20327;-73
2022/09/05 00:54:24;;;;;;;2.15;1.30;;;;;;;19.36;51.31;102261.63;6235443;28;20217;-73
2022/09/05 00:58:10;;;;;;;2.97;1.75;;;;;;;19.47;51.11;102266.88;6227641;28;20515;-73
2022/09/05 01:01:42;;;;;;;4.47;2.22;;;;;;;19.43;51.01;102273.69;6232369;28;20220;-73
2022/09/05 01:05:10;;;;;;;2.20;1.92;;;;;;;19.38;51.27;102269.72;6171728;28;20324;-72
2022/09/05 01:08:56;;;;;;;2.95;2.03;;;;;;;19.20;51.63;102268.81;6212258;28;20603;-73
2022/09/05 01:12:40;;;;;;;1.55;1.45;;;;;;;19.24;51.74;102276.56;6199571;28;20233;-73
2022/09/05 01:16:10;;;;;;;1.42;1.33;;;;;;;19.17;51.91;102268.13;6193934;28;20504;-72
2022/09/05 01:19:49;;;;;;;1.38;1.00;;;;;;;19.25;51.65;102269.22;6221794;28;20322;-72
2022/09/05 01:23:36;;;;;;;3.28;1.40;;;;;;;19.23;51.88;102265.78;6264671;28;20299;-73
2022/09/05 01:27:44;;;;;;;2.88;1.33;;;;;;;19.24;51.93;102268.34;6200087;28;20312;-73
2022/09/05 01:31:12;;;;;;;2.15;1.73;;;;;;;19.18;51.92;102269.00;6202735;28;20230;-72
2022/09/05 01:34:50;;;;;;;1.75;1.33;;;;;;;19.08;52.20;102260.88;6227373;28;20307;-72
2022/09/05 01:38:18;;;;;;;1.40;1.30;;;;;;;18.99;52.46;102252.75;6249457;28;20310;-74
2022/09/05 01:41:48;;;;;;;1.15;1.00;;;;;;;18.98;52.49;102257.34;6225946;28;20233;-72
2022/09/05 01:45:20;;;;;;;1.58;1.17;;;;;;;18.89;52.79;102257.44;6225321;28;20240;-73
2022/09/05 01:48:52;;;;;;;2.67;1.50;;;;;;;18.89;52.88;102260.19;6208123;28;20237;-73
2022/09/05 01:52:24;;;;;;;1.10;1.00;;;;;;;18.91;52.79;102258.16;6245442;28;20224;-72
2022/09/05 01:56:07;;;;;;;1.27;1.17;;;;;;;18.88;52.89;102252.97;6230797;28;20643;-72
2022/09/05 01:59:39;;;;;;;1.08;1.00;;;;;;;18.84;52.93;102252.44;6226357;28;20348;-72
2022/09/05 02:03:15;;;;;;;1.85;1.75;;;;;;;18.91;52.62;102250.81;6233986;28;20512;-73
2022/09/05 02:06:46;;;;;;;4.55;2.53;;;;;;;18.82;52.93;102251.75;6216549;28;20244;-72
2022/09/05 02:10:30;;;;;;;3.63;2.45;;;;;;;18.79;53.15;102254.81;6246621;28;20232;-72
2022/09/05 02:13:59;;;;;;;3.05;2.72;;;;;;;18.66;53.62;102251.59;6224175;28;20229;-72
2022/09/05 02:17:30;;;;;;;2.83;1.77;;;;;;;18.71;53.28;102251.97;6237827;28;20231;-72
2022/09/05 02:20:57;;;;;;;2.70;1.20;;;;;;;18.63;53.40;102246.41;6244836;28;20647;-72
2022/09/05 02:24:23;;;;;;;1.90;1.65;;;;;;;18.67;53.43;102247.00;6241053;28;20492;-71
2022/09/05 02:27:50;;;;;;;2.45;2.08;;;;;;;18.62;53.56;102247.44;6234636;28;20228;-72
2022/09/05 02:31:18;;;;;;;2.00;1.60;;;;;;;18.68;53.34;102254.16;6228950;28;20229;-72
2022/09/05 02:34:48;;;;;;;1.38;1.27;;;;;;;18.63;53.45;102248.31;6243535;28;20228;-73
2022/09/05 02:38:18;;;;;;;2.83;1.52;;;;;;;18.50;53.88;102245.09;6246108;28;20244;-72
2022/09/05 02:41:46;;;;;;;1.92;1.35;;;;;;;18.52;53.88;102243.06;6233602;28;20684;-72
2022/09/05 02:45:18;;;;;;;1.92;1.70;;;;;;;18.54;53.72;102241.03;6237018;28;20220;-72
2022/09/05 02:48:51;;;;;;;1.92;1.83;;;;;;;18.55;53.66;102243.59;6230423;28;20244;-72
2022/09/05 02:52:15;;;;;;;1.42;1.02;;;;;;;18.47;53.76;102235.31;6229653;28;20251;-72
2022/09/05 02:56:05;;;;;;;1.55;1.45;;;;;;;18.53;53.60;102231.09;6230705;28;20231;-72
2022/09/05 02:59:42;;;;;;;2.13;1.45;;;;;;;18.50;53.37;102231.44;6231280;28;20322;-72
2022/09/05 03:03:19;;;;;;;1.90;1.50;;;;;;;18.32;53.93;102229.50;6237524;28;20633;-72
2022/09/05 03:06:54;;;;;;;1.88;1.75;;;;;;;18.33;53.91;102228.50;6229427;28;20331;-72
2022/09/05 03:10:25;;;;;;;3.70;1.92;;;;;;;18.39;53.69;102224.28;6243453;28;20230;-72
2022/09/05 03:14:33;;;;;;;1.77;1.27;;;;;;;18.33;53.97;102224.91;6227709;28;20228;-73
2022/09/05 03:18:19;;;;;;;2.45;1.73;;;;;;;18.38;53.62;102225.28;6220519;28;20224;-71
2022/09/05 03:22:08;;;;;;;1.70;1.40;;;;;;;18.38;53.41;102228.00;6221322;28;20228;-72
2022/09/05 03:26:05;;;;;;;3.63;1.92;;;;;;;18.38;53.85;102226.16;6226034;28;20517;-73
2022/09/05 03:30:07;;;;;;;4.47;4.18;;;;;;;18.35;53.73;102226.47;6237913;28;20228;-72
2022/09/05 03:33:51;;;;;;;2.15;1.58;;;;;;;18.33;53.87;102231.22;6201488;28;20309;-73
2022/09/05 03:37:34;;;;;;;1.65;1.38;;;;;;;18.32;53.86;102232.22;6200243;28;20244;-73
2022/09/05 03:41:12;;;;;;;1.60;1.50;;;;;;;18.27;53.82;102226.34;6241978;28;20240;-73
2022/09/05 03:44:48;;;;;;;1.88;1.30;;;;;;;18.22;54.09;102227.84;6240454;28;20224;-72
2022/09/05 03:48:34;;;;;;;1.40;1.33;;;;;;;18.28;53.97;102229.94;6221778;28;20563;-71
2022/09/05 03:52:06;;;;;;;2.22;2.08;;;;;;;18.21;54.13;102235.16;6239245;28;20250;-72
2022/09/05 03:55:43;;;;;;;2.13;2.00;;;;;;;18.27;54.04;102237.28;6238500;28;20236;-73
2022/09/05 03:59:35;;;;;;;1.83;1.67;;;;;;;18.31;53.91;102240.59;6242063;28;20278;-71
2022/09/05 04:03:14;;;;;;;2.00;1.55;;;;;;;18.31;53.79;102244.16;6230703;28;20262;-72
2022/09/05 04:06:42;;;;;;;4.05;3.60;;;;;;;18.40;53.30;102239.63;6230753;28;20512;-72
2022/09/05 04:10:06;;;;;;;3.75;1.60;;;;;;;18.38;53.79;102237.06;6238603;28;20613;-71
2022/09/05 04:13:33;;;;;;;2.28;1.80;;;;;;;18.38;53.54;102238.94;6230738;28;20230;-72
2022/09/05 04:17:00;;;;;;;2.05;1.67;;;;;;;18.43;53.40;102238.47;6233964;28;20603;-73
2022/09/05 04:20:34;;;;;;;2.20;1.58;;;;;;;18.38;53.46;102240.84;6228951;28;20232;-73
2022/09/05 04:24:12;;;;;;;1.70;1.60;;;;;;;18.37;53.55;102245.44;6225174;28;20537;-73
2022/09/05 04:27:45;;;;;;;4.50;3.85;;;;;;;18.34;53.46;102246.59;6249769;28;20316;-72
2022/09/05 04:31:16;;;;;;;3.65;2.40;;;;;;;18.34;53.44;102246.59;6245385;28;20231;-73
2022/09/05 04:34:56;;;;;;;3.35;2.35;;;;;;;18.33;53.50;102244.88;6234784;28;20490;-72
2022/09/05 04:38:18;;;;;;;2.95;1.98;;;;;;;18.36;53.38;102251.88;6239876;28;20551;-71
2022/09/05 04:41:45;;;;;;;2.67;1.80;;;;;;;18.42;53.09;102255.91;6233380;28;20319;-72
2022/09/05 04:45:11;;;;;;;2.38;1.92;;;;;;;18.38;53.36;102249.03;6232137;28;20326;-73
2022/09/05 04:48:37;;;;;;;2.80;2.42;;;;;;;18.38;53.15;102258.91;6225532;28;20438;-72
2022/09/05 04:52:38;;;;;;;2.35;1.63;;;;;;;18.41;53.40;102262.34;6242520;28;20225;-72
2022/09/05 04:56:01;;;;;;;1.60;1.50;;;;;;;18.42;53.04;102258.63;6205743;28;20225;-73
2022/09/05 04:59:33;;;;;;;2.03;1.83;;;;;;;18.36;53.68;102271.00;6228759;28;20579;-72
2022/09/05 05:02:56;;;;;;;1.83;1.55;;;;;;;18.45;53.48;102275.59;6225357;28;20220;-73
2022/09/05 05:06:25;;;;;;;2.25;2.05;;;;;;;18.50;53.07;102272.41;6236612;28;20228;-72
2022/09/05 05:09:51;;;;;;;2.65;2.45;;;;;;;18.50;52.87;102273.28;6232229;28;20525;-72
2022/09/05 05:13:19;;;;;;;1.88;1.70;;;;;;;18.57;52.94;102274.34;6228137;28;20240;-72
2022/09/05 05:16:47;;;;;;;3.85;1.77;;;;;;;18.56;53.02;102277.25;6236770;28;20245;-72
2022/09/05 05:20:21;;;;;;;3.25;2.30;;;;;;;18.64;52.94;102280.94;6227930;28;20240;-72
2022/09/05 05:23:46;;;;;;;3.13;2.83;;;;;;;18.69;52.49;102281.31;6238287;28;20554;-72
2022/09/05 05:27:16;;;;;;;2.63;2.08;;;;;;;18.71;52.25;102282.03;6221625;28;20220;-72
2022/09/05 05:30:39;;;;;;;2.67;2.42;;;;;;;18.84;52.33;102281.63;6230106;28;20527;-72
2022/09/05 05:34:04;;;;;;;2.03;1.83;;;;;;;18.80;52.55;102281.09;6222300;28;20232;-72
2022/09/05 05:37:31;;;;;;;1.80;1.65;;;;;;;18.81;52.37;102276.50;6214382;28;20495;-72
2022/09/05 05:41:00;;;;;;;2.30;2.10;;;;;;;18.78;52.60;102285.00;6233033;28;20626;-72
2022/09/05 05:44:25;;;;;;;2.05;1.85;;;;;;;18.87;52.51;102286.81;6228687;28;20259;-72
2022/09/05 05:47:51;;;;;;;3.05;1.70;;;;;;;18.93;52.52;102294.38;6231583;28;20618;-72
2022/09/05 05:51:36;;;;;;;2.35;2.03;;;;;;;18.88;52.56;102299.44;6230901;28;20228;-72
2022/09/05 05:55:01;;;;;;;2.17;1.98;;;;;;;18.81;53.08;102299.22;6229008;28;20586;-73
2022/09/05 05:58:47;;;;;;;2.33;2.13;;;;;;;18.98;52.83;102309.28;6225616;28;20239;-72
2022/09/05 06:02:46;;;;;;;2.80;2.08;;;;;;;19.15;52.54;102313.91;6229777;28;20259;-72
2022/09/05 06:06:46;;;;;;;1.85;1.73;;;;;;;19.13;52.21;102306.88;6198173;28;20819;-72
2022/09/05 06:10:27;;;;;;;1.60;1.50;;;;;;;19.13;52.54;102317.81;6231815;28;20255;-72
2022/09/05 06:14:15;;;;;;;3.53;1.70;;;;;;;19.15;52.49;102310.31;6230980;28;20332;-72
2022/09/05 06:18:20;;;;;;;3.45;2.08;;;;;;;19.30;52.17;102318.81;6245575;28;20235;-71
2022/09/05 06:22:21;;;;;;;2.53;2.33;;;;;;;19.42;51.94;102321.19;6229577;28;20254;-72
2022/09/05 06:26:11;;;;;;;2.70;2.38;;;;;;;19.52;51.88;102332.06;6223340;28;20307;-73
2022/09/05 06:29:43;;;;;;;2.08;1.38;;;;;;;19.57;51.54;102324.19;6228074;28;20225;-72
2022/09/05 06:33:15;;;;;;;3.55;2.78;;;;;;;19.77;51.37;102325.75;6227176;28;20224;-72
2022/09/05 06:36:50;;;;;;;2.70;1.80;;;;;;;19.81;51.28;102330.75;6234459;28;20240;-72
2022/09/05 06:40:21;;;;;;;5.95;3.88;;;;;;;19.98;50.83;102326.22;6236459;28;20232;-72
2022/09/05 06:44:15;;;;;;;1.52;1.42;;;;;;;20.06;50.93;102326.28;6239548;28;20235;-72
2022/09/05 06:47:40;;;;;;;3.95;1.75;;;;;;;19.98;51.35;102336.31;6255676;28;20228;-72
2022/09/05 06:51:25;;;;;;;4.38;1.65;;;;;;;20.10;50.65;102333.13;6212193;28;20229;-72
2022/09/05 06:55:37;;;;;;;2.97;1.73;;;;;;;19.73;51.62;102332.56;6191898;28;20228;-73
2022/09/05 06:59:44;;;;;;;2.45;1.83;;;;;;;19.85;51.46;102331.28;6160708;28;20226;-72
2022/09/05 07:03:24;;;;;;;3.40;2.03;;;;;;;19.60;51.66;102337.59;6225824;28;20331;-73
2022/09/05 07:07:01;;;;;;;2.45;2.25;;;;;;;19.69;52.25;102326.53;6226767;28;20232;-72
2022/09/05 07:10:28;;;;;;;1.95;1.75;;;;;;;19.62;51.96;102339.16;6243123;28;20244;-72
2022/09/05 07:14:00;;;;;;;2.25;2.00;;;;;;;19.74;52.12;102337.00;6198977;28;20329;-72
2022/09/05 07:17:32;;;;;;;2.80;2.50;;;;;;;19.81;52.04;102341.69;6219304;28;20251;-72
2022/09/05 07:20:57;;;;;;;2.63;1.73;;;;;;;19.71;52.27;102340.91;6223622;28;20244;-72
2022/09/05 07:24:22;;;;;;;4.43;1.40;;;;;;;19.79;51.98;102348.34;6238324;28;20256;-72
2022/09/05 07:27:50;;;;;;;2.80;1.75;;;;;;;19.86;52.09;102341.19;6237581;28;20319;-72
2022/09/05 07:31:16;;;;;;;3.85;2.05;;;;;;;20.12;51.42;102341.19;6224328;28;20579;-73
2022/09/05 07:34:38;;;;;;;4.00;2.65;;;;;;;20.26;51.31;102346.94;6233707;28;20522;-72
2022/09/05 07:38:05;;;;;;;4.60;2.15;;;;;;;20.41;50.89;102345.31;6236590;28;20525;-73
2022/09/05 07:41:29;;;;;;;4.47;2.65;;;;;;;20.56;50.66;102359.25;6228147;28;20240;-72
2022/09/05 07:44:56;;;;;;;2.03;1.83;;;;;;;20.59;50.09;102350.69;6238804;28;20229;-72
2022/09/05 07:48:23;;;;;;;2.67;2.15;;;;;;;20.73;50.29;102359.13;6218165;28;20236;-71
2022/09/05 07:51:53;;;;;;;3.55;2.25;;;;;;;20.88;50.34;102345.66;6249342;28;20236;-72
2022/09/05 07:55:26;;;;;;;7.68;2.45;;;;;;;20.84;50.11;102347.00;6228832;28;20233;-72
2022/09/05 07:58:50;;;;;;;1.77;1.17;;;;;;;20.88;50.27;102367.56;6219249;28;20237;-72
2022/09/05 08:02:12;;;;;;;1.95;1.85;;;;;;;20.95;50.11;102351.31;6231092;28;20323;-72
2022/09/05 08:05:39;;;;;;;2.20;1.98;;;;;;;21.12;50.01;102348.50;6227075;28;20232;-72
2022/09/05 08:09:06;;;;;;;2.00;1.63;;;;;;;21.33;49.42;102348.88;6240166;28;20228;-72
2022/09/05 08:12:36;;;;;;;1.80;1.70;;;;;;;21.53;49.16;102346.63;6219289;28;20229;-72
2022/09/05 08:15:59;;;;;;;2.30;1.88;;;;;;;21.76;48.82;102344.91;6211452;28;20236;-72
2022/09/05 08:19:40;;;;;;;2.55;2.28;;;;;;;21.77;48.79;102352.13;6211031;28;20244;-72
2022/09/05 08:23:08;;;;;;;2.67;2.17;;;;;;;22.01;48.14;102351.25;6228539;28;20232;-72
2022/09/05 08:26:37;;;;;;;2.65;1.88;;;;;;;22.03;48.04;102350.03;6228714;28;20231;-72
2022/09/05 08:30:02;;;;;;;3.75;1.70;;;;;;;22.24;47.65;102343.97;6228507;28;20783;-72
2022/09/05 08:33:27;;;;;;;22.52;2.65;;;;;;;22.21;48.06;102339.72;6232469;28;20227;-72
2022/09/05 08:36:50;;;;;;;1.80;1.70;;;;;;;22.40;47.57;102335.69;6244277;28;20220;-72
2022/09/05 08:40:23;;;;;;;2.33;1.73;;;;;;;22.60;47.70;102341.66;6227799;28;20233;-73
2022/09/05 08:43:55;;;;;;;2.63;1.73;;;;;;;22.78;47.19;102329.34;6228138;28;20300;-72
2022/09/05 08:47:26;;;;;;;1.48;1.38;;;;;;;22.43;47.67;102329.84;6239439;28;20244;-72
2022/09/05 08:51:10;;;;;;;1.70;1.48;;;;;;;22.43;48.21;102324.34;6223329;28;20296;-72
2022/09/05 08:54:37;;;;;;;1.90;1.73;;;;;;;22.23;48.74;102331.28;6235292;28;20591;-73
2022/09/05 08:58:09;;;;;;;2.08;1.33;;;;;;;22.88;47.54;102326.38;6219598;28;20838;-73
2022/09/05 09:01:34;;;;;;;1.55;1.45;;;;;;;23.05;46.98;102323.34;6225721;28;20228;-72
2022/09/05 09:05:08;;;;;;;2.50;1.45;;;;;;;23.48;46.33;102315.47;6247081;28;20228;-73
2022/09/05 09:08:42;;;;;;;1.75;1.50;;;;;;;23.71;45.99;102310.78;6226496;28;20224;-73
2022/09/05 09:12:14;;;;;;;2.40;1.58;;;;;;;23.41;46.60;102315.34;6259489;28;20220;-72
2022/09/05 09:15:38;;;;;;;3.13;2.83;;;;;;;23.20;47.06;102319.81;6244684;28;20227;-72
2022/09/05 09:19:08;;;;;;;3.03;1.20;;;;;;;23.56;46.19;102313.50;6234495;28;20229;-73
2022/09/05 09:22:39;;;;;;;1.63;1.45;;;;;;;23.93;45.82;102309.03;6218626;28;20593;-72
2022/09/05 09:26:12;;;;;;;1.45;1.38;;;;;;;24.06;45.24;102303.72;6226228;28;20611;-73
2022/09/05 09:29:38;;;;;;;1.83;1.63;;;;;;;23.77;46.31;102313.66;6206782;28;20229;-73
2022/09/05 09:33:05;;;;;;;2.00;1.88;;;;;;;24.13;45.27;102302.81;6228225;28;20543;-72
2022/09/05 09:36:49;;;;;;;3.05;1.60;;;;;;;23.90;45.81;102302.00;6233912;28;20232;-73
2022/09/05 09:40:49;;;;;;;2.90;2.15;;;;;;;24.36;45.04;102322.00;6229246;28;20516;-72
2022/09/05 09:45:00;;;;;;;2.17;1.75;;;;;;;24.12;45.20;102303.81;6231282;28;20507;-72
2022/09/05 09:49:03;;;;;;;2.53;2.30;;;;;;;24.32;45.35;102306.88;6235549;28;20232;-71
2022/09/05 09:52:48;;;;;;;3.95;2.05;;;;;;;24.26;45.75;102308.47;6228914;28;20682;-72
2022/09/05 09:56:54;;;;;;;3.58;2.30;;;;;;;24.87;44.65;102301.66;6232267;28;20375;-72
2022/09/05 10:00:19;;;;;;;4.18;2.10;;;;;;;24.72;44.52;102295.28;6204222;28;20244;-72
2022/09/05 10:04:06;;;;;;;4.18;2.03;;;;;;;24.73;44.52;102294.25;6248367;28;20833;-73
2022/09/05 10:07:48;;;;;;;3.53;2.13;;;;;;;25.20;43.02;102294.59;6219545;28;20323;-72
2022/09/05 10:11:19;;;;;;;2.92;2.20;;;;;;;24.82;44.10;102295.03;6249901;28;20586;-72
2022/09/05 10:15:00;;;;;;;2.15;1.70;;;;;;;24.32;44.92;102298.59;6236533;28;20224;-72
2022/09/05 10:18:36;;;;;;;3.50;2.10;;;;;;;24.22;45.33;102300.81;6234352;28;20233;-73
2022/09/05 10:22:15;;;;;;;1.92;1.80;;;;;;;24.07;45.57;102288.91;6232031;28;20773;-71
2022/09/05 10:25:57;;;;;;;2.28;1.75;;;;;;;23.83;46.23;102279.84;6228343;28;20263;-73
2022/09/05 10:29:44;;;;;;;3.30;1.73;;;;;;;23.68;46.53;102280.84;6214755;28;20599;-72
2022/09/05 10:33:35;;;;;;;3.33;2.10;;;;;;;23.82;46.72;102285.56;6223328;28;20220;-72
2022/09/05 10:37:01;;;;;;;2.05;1.90;;;;;;;23.59;46.97;102279.25;6230113;28;20308;-72
2022/09/05 10:40:26;;;;;;;2.42;2.28;;;;;;;23.25;46.85;102268.69;6227132;28;20249;-73
2022/09/05 10:43:53;;;;;;;2.33;1.35;;;;;;;23.14;47.39;102271.00;6247102;28;20224;-71
2022/09/05 10:47:31;;;;;;;2.20;1.63;;;;;;;23.11;47.42;102272.25;6226258;28;20231;-73
2022/09/05 10:50:59;;;;;;;2.42;1.98;;;;;;;23.08;47.69;102282.72;6223479;28;20232;-72
2022/09/05 10:54:34;;;;;;;4.50;1.73;;;;;;;23.07;47.99;102278.28;6206704;28;20274;-72
2022/09/05 10:58:02;;;;;;;1.80;1.38;;;;;;;23.01;47.11;102271.59;6241223;28;20232;-71
2022/09/05 11:01:38;;;;;;;3.20;1.70;;;;;;;22.83;47.88;102260.91;6208871;28;20236;-73
2022/09/05 11:05:08;;;;;;;2.03;1.90;;;;;;;23.07;47.56;102264.53;6232563;28;20456;-72
2022/09/05 11:08:40;;;;;;;1.48;1.30;;;;;;;23.07;47.21;102253.53;6237630;28;20224;-73
2022/09/05 11:12:14;;;;;;;1.50;1.40;;;;;;;23.15;47.40;102257.06;6231632;28;20224;-71
2022/09/05 11:15:53;;;;;;;2.28;1.33;;;;;;;23.24;47.04;102258.69;6226419;28;20225;-72
2022/09/05 11:19:19;;;;;;;2.20;1.63;;;;;;;23.11;47.07;102249.34;6232855;28;20232;-72
2022/09/05 11:22:44;;;;;;;1.58;1.48;;;;;;;22.79;46.79;102265.06;6221005;28;20233;-72
2022/09/05 11:26:13;;;;;;;2.05;1.85;;;;;;;22.98;47.31;102261.84;6220855;28;20240;-72
2022/09/05 11:29:41;;;;;;;2.22;1.48;;;;;;;23.01;46.71;102257.84;6230133;28;20327;-73
2022/09/05 11:33:39;;;;;;;2.72;1.70;;;;;;;23.01;47.06;102250.44;6218519;28;20233;-72
2022/09/05 11:37:03;;;;;;;1.75;1.38;;;;;;;23.05;46.45;102245.47;6219017;28;20217;-72
2022/09/05 11:40:41;;;;;;;1.27;1.15;;;;;;;23.19;46.36;102247.41;6228559;28;20252;-73
2022/09/05 11:44:25;;;;;;;4.55;1.38;;;;;;;23.17;46.24;102243.13;6205082;28;20632;-72
2022/09/05 11:48:09;;;;;;;1.70;1.60;;;;;;;23.23;46.76;102237.72;6235824;28;20273;-72
2022/09/05 11:52:11;;;;;;;1.65;1.40;;;;;;;23.10;46.69;102242.13;6227897;28;20237;-73
2022/09/05 11:55:47;;;;;;;2.60;1.30;;;;;;;23.26;47.24;102239.25;6211704;28;20229;-73
2022/09/05 11:59:34;;;;;;;1.27;1.05;;;;;;;23.11;47.53;102235.59;6234905;28;20311;-72
2022/09/05 12:03:10;;;;;;;2.38;1.92;;;;;;;23.25;47.20;102243.03;6229950;28;20251;-72
2022/09/05 12:06:57;;;;;;;1.33;1.08;;;;;;;23.42;45.96;102234.50;6222514;28;20224;-73
2022/09/05 12:10:33;;;;;;;1.67;1.58;;;;;;;23.46;45.64;102233.06;6223161;28;20593;-73
2022/09/05 12:14:01;;;;;;;1.20;1.10;;;;;;;23.54;45.83;102238.50;6230795;28;20232;-73
2022/09/05 12:17:30;;;;;;;1.10;1.10;;;;;;;23.54;45.71;102235.75;6230677;28;20237;-72
2022/09/05 12:21:00;;;;;;;1.15;1.05;;;;;;;23.72;45.43;102240.88;6234641;28;20231;-72
2022/09/05 12:24:29;;;;;;;1.40;1.30;;;;;;;23.66;45.10;102225.97;6239130;28;20224;-72
2022/09/05 12:27:54;;;;;;;1.17;1.02;;;;;;;23.53;45.48;102224.91;6242511;28;20312;-72
2022/09/05 12:31:21;;;;;;;1.42;1.33;;;;;;;23.53;45.53;102216.66;6235395;28;20630;-72
2022/09/05 12:34:50;;;;;;;3.40;2.95;;;;;;;23.68;44.69;102226.63;6226111;28;20229;-73
2022/09/05 12:38:33;;;;;;;2.33;2.13;;;;;;;23.67;45.35;102219.44;6232727;28;20235;-73
2022/09/05 12:42:02;;;;;;;1.80;0.95;;;;;;;23.73;44.69;102215.06;6214462;28;20229;-72
2022/09/05 12:45:31;;;;;;;2.15;1.13;;;;;;;23.91;44.74;102212.75;6230161;28;20228;-72
2022/09/05 12:48:56;;;;;;;2.72;1.45;;;;;;;23.91;44.44;102211.94;6229405;28;20233;-73
2022/09/05 12:52:31;;;;;;;2.33;1.52;;;;;;;23.98;44.84;102210.97;6226371;28;20225;-72
2022/09/05 12:55:57;;;;;;;2.33;1.63;;;;;;;24.08;44.62;102207.94;6230856;28;20251;-72
2022/09/05 12:59:21;;;;;;;1.30;1.20;;;;;;;24.25;44.25;102203.91;6238414;28;20240;-73
2022/09/05 13:02:49;;;;;;;1.75;1.30;;;;;;;24.44;44.35;102208.81;6229279;28;20228;-72
2022/09/05 13:06:19;;;;;;;3.50;1.27;;;;;;;24.48;43.33;102210.16;6241628;28;20315;-72
2022/09/05 13:09:44;;;;;;;2.30;1.92;;;;;;;24.55;42.84;102205.56;6236690;28;20779;-72
2022/09/05 13:13:10;;;;;;;1.52;1.42;;;;;;;24.86;42.28;102195.09;6233285;28;20232;-72
2022/09/05 13:16:32;;;;;;;1.50;1.38;;;;;;;25.08;41.81;102195.94;6226790;28;20252;-72
2022/09/05 13:19:55;;;;;;;1.52;1.30;;;;;;;25.54;40.99;102190.81;6214718;28;20265;-73
2022/09/05 13:23:21;;;;;;;0.98;0.88;;;;;;;28.78;34.66;102188.63;6211325;28;20321;-73
2022/09/05 13:26:50;;;;;;;1.10;1.00;;;;;;;30.57;32.56;102166.88;6237257;28;20232;-72
2022/09/05 13:30:14;;;;;;;1.30;1.20;;;;;;;28.47;35.56;102181.13;6235957;28;20681;-72
2022/09/05 13:33:43;;;;;;;0.98;0.98;;;;;;;31.07;30.91;102166.56;6228561;28;20235;-73
2022/09/05 13:37:16;;;;;;;1.88;1.77;;;;;;;30.82;31.65;102165.84;6240304;28;20232;-72
2022/09/05 13:40:42;;;;;;;2.83;1.17;;;;;;;28.27;35.11;102164.56;6224874;28;20236;-72
2022/09/05 13:44:09;;;;;;;2.38;2.17;;;;;;;26.95;38.07;102165.03;6229901;28;20233;-72
2022/09/05 13:48:00;;;;;;;2.38;1.95;;;;;;;26.44;39.14;102173.00;6219640;28;20704;-73
2022/09/05 13:51:30;;;;;;;1.45;1.35;;;;;;;26.26;39.29;102174.63;6236525;28;20524;-73
2022/09/05 13:55:03;;;;;;;2.00;1.27;;;;;;;26.68;38.38;102153.03;6238921;28;20301;-72
2022/09/05 13:58:38;;;;;;;1.55;1.23;;;;;;;28.48;34.71;102161.47;6232975;28;21402;-72
2022/09/05 14:02:29;;;;;;;3.47;1.60;;;;;;;26.59;38.59;102158.97;6229411;28;20240;-73
2022/09/05 14:05:57;;;;;;;1.80;1.20;;;;;;;26.27;38.72;102159.75;6220692;28;20229;-72
2022/09/05 14:09:32;;;;;;;3.03;1.80;;;;;;;26.39;38.71;102160.88;6250114;28;20236;-73
2022/09/05 14:13:00;;;;;;;1.38;1.25;;;;;;;26.39;38.38;102158.94;6232776;28;20232;-73
2022/09/05 14:16:25;;;;;;;2.13;1.00;;;;;;;26.18;38.77;102166.53;6211196;28;20527;-73
2022/09/05 14:23:36;;;;;;;1.60;1.00;;;;;;;25.64;39.78;102155.41;6222159;28;20316;-72
2022/09/05 14:27:10;;;;;;;2.95;2.03;;;;;;;26.46;38.33;102162.56;6234636;28;20241;-73
2022/09/05 14:30:45;;;;;;;1.55;1.45;;;;;;;26.42;38.47;102153.00;6213607;28;20234;-73
2022/09/05 14:34:26;;;;;;;1.20;1.15;;;;;;;26.17;38.55;102156.50;6230245;28;20537;-74
2022/09/05 14:37:56;;;;;;;1.85;1.42;;;;;;;25.95;39.10;102161.31;6224227;28;20233;-73
2022/09/05 14:41:42;;;;;;;2.88;1.58;;;;;;;25.95;39.48;102164.91;6234186;28;20528;-72
2022/09/05 14:45:22;;;;;;;2.17;1.00;;;;;;;26.13;39.14;102156.09;6236517;28;20229;-72
2022/09/05 14:48:58;;;;;;;1.35;1.23;;;;;;;26.31;39.10;102145.28;6237328;28;20244;-73
2022/09/05 14:52:25;;;;;;;1.45;1.35;;;;;;;26.63;38.45;102139.00;6218405;28;20224;-73
2022/09/05 14:55:54;;;;;;;1.13;1.13;;;;;;;26.37;38.40;102149.16;6212444;28;20523;-72
2022/09/05 14:59:22;;;;;;;1.40;1.27;;;;;;;26.52;38.74;102150.66;6222506;28;20227;-72
2022/09/05 15:02:46;;;;;;;2.10;1.60;;;;;;;26.66;38.26;102155.16;6218465;28;20400;-73
2022/09/05 15:06:19;;;;;;;1.75;1.30;;;;;;;26.65;37.99;102149.84;6221597;28;20228;-73
2022/09/05 15:09:41;;;;;;;2.00;1.00;;;;;;;27.32;37.01;102141.34;6213164;28;20606;-72
2022/09/05 15:13:06;;;;;;;1.67;1.27;;;;;;;27.89;37.74;102146.97;6213365;28;20229;-73
2022/09/05 15:16:27;;;;;;;1.63;1.40;;;;;;;27.72;36.63;102144.94;6214089;28;20308;-73
2022/09/05 15:19:54;;;;;;;3.03;1.60;;;;;;;27.38;36.80;102134.97;6220584;28;20244;-72
2022/09/05 15:23:32;;;;;;;4.05;2.03;;;;;;;26.84;37.85;102133.28;6225915;28;20232;-72
2022/09/05 15:26:55;;;;;;;1.15;1.05;;;;;;;26.79;38.27;102138.59;6229377;28;20219;-73
2022/09/05 15:30:19;;;;;;;1.80;1.67;;;;;;;26.29;38.72;102143.78;6224550;28;20548;-73
2022/09/05 15:33:42;;;;;;;1.88;1.33;;;;;;;26.17;38.98;102137.16;6244373;28;20236;-73
2022/09/05 15:37:20;;;;;;;1.10;1.00;;;;;;;25.83;39.65;102132.53;6223378;28;20848;-72
2022/09/05 15:40:43;;;;;;;1.20;1.10;;;;;;;25.80;40.05;102121.91;6225016;28;20609;-72
2022/09/05 15:44:06;;;;;;;1.75;1.65;;;;;;;25.82;40.09;102125.31;6222906;28;20528;-73
2022/09/05 15:47:28;;;;;;;2.13;1.92;;;;;;;25.67;39.81;102121.81;6232518;28;20609;-74
2022/09/05 15:50:51;;;;;;;1.40;1.30;;;;;;;25.67;40.20;102127.34;6229009;28;20232;-73
2022/09/05 15:54:22;;;;;;;1.15;1.05;;;;;;;25.52;40.35;102123.84;6233507;28;20228;-73
2022/09/05 15:57:48;;;;;;;2.17;1.38;;;;;;;25.34;41.11;102122.47;6234785;28;20236;-73
2022/09/05 16:01:14;;;;;;;4.25;1.30;;;;;;;25.69;40.41;102126.09;6230134;28;20323;-72
2022/09/05 16:04:36;;;;;;;4.45;2.65;;;;;;;26.21;39.35;102117.19;6219753;28;20228;-72
2022/09/05 16:08:01;;;;;;;1.38;1.25;;;;;;;26.03;39.88;102125.19;6219834;28;20542;-75
2022/09/05 16:11:26;;;;;;;1.98;1.67;;;;;;;25.87;40.46;102114.47;6224001;28;20233;-73
2022/09/05 16:14:52;;;;;;;2.45;1.25;;;;;;;25.75;41.02;102116.13;6231494;28;20232;-72
2022/09/05 16:18:19;;;;;;;2.08;1.88;;;;;;;25.58;41.21;102125.78;6229493;28;20237;-73
2022/09/05 16:21:41;;;;;;;3.50;1.42;;;;;;;25.33;41.26;102117.97;6239218;28;20224;-73
2022/09/05 16:25:08;;;;;;;1.02;0.93;;;;;;;25.29;43.03;102130.50;6230691;28;20326;-74
2022/09/05 16:28:33;;;;;;;1.70;1.60;;;;;;;25.06;43.85;102123.50;6227118;28;20244;-74
2022/09/05 16:32:14;;;;;;;1.17;1.08;;;;;;;24.86;45.09;102130.78;6219845;28;20232;-73
2022/09/05 16:35:38;;;;;;;1.55;1.20;;;;;;;24.83;45.13;102123.75;6212423;28;20236;-74